Time;durP1;ratioP1;P1;durP2;ratioP2;P2;SDS_P1;SDS_P2;PMS_P1;PMS_P2;Temp;Humidity;BMP_temperature;BMP_pressure;BME280_temperature;BME280_humidity;BME280_pressure;Samples;Min_cycle;Max_cycle;Signal;HPM_P1;HPM_P2
2024/03/05 00:00:12;;;;;;;25.30;12.50;;;;;;;10.01;70.86;101363.50;5050796;28;20044;-48
2024/03/05 00:02:41;;;;;;;20.95;12.13;;;;;;;10.14;69.44;101369.88;5051310;28;20033;-45
2024/03/05 00:05:07;;;;;;;23.02;11.95;;;;;;;10.09;69.79;101368.91;5034616;28;20029;-45
2024/03/05 00:07:36;;;;;;;27.98;13.27;;;;;;;10.02;70.29;101364.38;5052925;28;20399;-47
2024/03/05 00:10:02;;;;;;;24.55;12.85;;;;;;;10.06;69.96;101364.47;5051075;28;20139;-44
2024/03/05 00:12:29;;;;;;;25.25;12.82;;;;;;;10.09;70.61;101363.69;5050839;28;20119;-45
2024/03/05 00:14:55;;;;;;;27.45;14.15;;;;;;;10.13;70.43;101368.09;5051613;28;20037;-45
2024/03/05 00:17:22;;;;;;;23.58;13.23;;;;;;;10.12;70.02;101364.63;5052215;28;20025;-47
2024/03/05 00:19:47;;;;;;;28.85;13.77;;;;;;;9.89;71.00;101370.13;5057414;28;20029;-45
2024/03/05 00:22:13;;;;;;;30.27;13.38;;;;;;;9.85;71.54;101370.91;5054541;28;20086;-46
2024/03/05 00:24:38;;;;;;;28.95;14.15;;;;;;;10.12;71.11;101367.22;5054537;28;20680;-44
2024/03/05 00:27:03;;;;;;;26.92;13.13;;;;;;;10.12;70.98;101369.84;5051391;28;20043;-46
2024/03/05 00:29:29;;;;;;;28.90;14.23;;;;;;;9.70;72.61;101366.22;5051240;28;20029;-47
2024/03/05 00:31:54;;;;;;;28.25;14.23;;;;;;;10.06;71.80;101366.25;5052902;28;20352;-46
2024/03/05 00:34:19;;;;;;;30.23;14.02;;;;;;;10.13;70.88;101363.78;5051723;28;20040;-48
2024/03/05 00:36:45;;;;;;;30.40;14.15;;;;;;;10.18;70.46;101370.88;5051444;28;20052;-47
2024/03/05 00:39:10;;;;;;;30.25;13.68;;;;;;;9.77;71.27;101370.72;5050676;28;20036;-45
2024/03/05 00:41:35;;;;;;;29.98;14.50;;;;;;;9.96;71.57;101365.13;5052164;28;20033;-47
2024/03/05 00:44:01;;;;;;;28.42;14.88;;;;;;;10.05;70.90;101369.69;5053211;28;20163;-46
2024/03/05 00:46:27;;;;;;;29.17;14.30;;;;;;;10.06;70.78;101363.63;5053423;28;20032;-45
2024/03/05 00:48:52;;;;;;;27.85;14.20;;;;;;;9.99;70.54;101369.53;5053025;28;20033;-48
2024/03/05 00:51:17;;;;;;;28.45;14.63;;;;;;;10.06;70.79;101371.44;5051781;28;20043;-47
2024/03/05 00:53:42;;;;;;;29.58;14.70;;;;;;;9.92;71.47;101371.13;5051635;28;20373;-45
2024/03/05 00:56:08;;;;;;;30.88;14.48;;;;;;;9.97;70.97;101369.50;5033091;28;20029;-46
2024/03/05 00:58:33;;;;;;;31.33;15.38;;;;;;;9.93;71.28;101361.56;5051644;28;20052;-46
2024/03/05 01:00:58;;;;;;;31.13;14.80;;;;;;;9.92;70.68;101370.22;5051829;28;20036;-46
2024/03/05 01:03:24;;;;;;;27.60;13.90;;;;;;;9.74;70.83;101368.06;5050606;28;20032;-45
2024/03/05 01:05:49;;;;;;;29.88;14.30;;;;;;;9.82;70.56;101366.50;5050799;28;20041;-46
2024/03/05 01:08:15;;;;;;;28.45;13.93;;;;;;;9.81;70.52;101369.97;5049957;28;20033;-50
2024/03/05 01:10:45;;;;;;;32.97;15.32;;;;;;;9.65;71.60;101368.69;5032441;28;20549;-46
2024/03/05 01:13:10;;;;;;;34.88;15.57;;;;;;;9.71;70.89;101365.38;5050574;28;20037;-45
2024/03/05 01:15:36;;;;;;;32.13;15.25;;;;;;;9.71;70.28;101361.03;5051364;28;20037;-46
2024/03/05 01:18:02;;;;;;;29.75;14.70;;;;;;;9.61;70.60;101351.25;5049778;28;20137;-47
2024/03/05 01:20:27;;;;;;;31.98;16.05;;;;;;;9.51;71.37;101353.59;5050393;28;20499;-51
2024/03/05 01:22:52;;;;;;;30.90;15.23;;;;;;;9.59;70.77;101352.94;5050178;28;20088;-43
2024/03/05 01:25:18;;;;;;;33.97;16.35;;;;;;;9.49;70.97;101352.66;5049909;28;22185;-45
2024/03/05 01:27:44;;;;;;;28.15;15.27;;;;;;;9.44;71.18;101349.97;5050367;28;20033;-44
2024/03/05 01:30:11;;;;;;;29.85;15.05;;;;;;;9.43;72.31;101350.81;5049853;28;20690;-44
2024/03/05 01:32:39;;;;;;;32.80;15.55;;;;;;;9.49;71.46;101350.06;5049907;28;20120;-45
2024/03/05 01:35:11;;;;;;;27.92;14.85;;;;;;;9.45;70.78;101346.53;5049482;28;20028;-45
2024/03/05 01:37:40;;;;;;;31.83;15.93;;;;;;;9.38;71.27;101342.00;5050148;28;20064;-45
2024/03/05 01:40:06;;;;;;;27.25;14.70;;;;;;;9.41;71.33;101338.56;5049749;28;20464;-47
2024/03/05 01:42:32;;;;;;;29.58;14.55;;;;;;;9.35;70.96;101337.59;5049792;28;20037;-46
2024/03/05 01:44:58;;;;;;;29.77;14.85;;;;;;;9.35;71.19;101340.19;5051900;28;20418;-46
2024/03/05 01:47:25;;;;;;;31.42;16.02;;;;;;;9.28;71.27;101334.78;5053772;28;20151;-46
2024/03/05 01:49:50;;;;;;;35.00;16.08;;;;;;;9.27;70.65;101331.28;5054285;28;20064;-47
2024/03/05 01:52:15;;;;;;;31.70;15.52;;;;;;;9.26;70.57;101337.38;5053285;28;20053;-46
2024/03/05 01:54:42;;;;;;;33.60;15.75;;;;;;;9.22;71.32;101345.03;5054471;28;20124;-46
2024/03/05 01:57:09;;;;;;;32.63;15.70;;;;;;;9.21;71.22;101338.09;5053810;28;20029;-44
2024/03/05 01:59:41;;;;;;;37.38;16.52;;;;;;;9.22;70.97;101335.50;5052387;28;20052;-45
2024/03/05 02:02:07;;;;;;;33.95;16.17;;;;;;;9.21;70.85;101338.09;5053251;28;20033;-44
2024/03/05 02:04:36;;;;;;;34.83;17.08;;;;;;;9.13;71.28;101329.19;5054481;28;20091;-45
2024/03/05 02:07:06;;;;;;;38.35;16.92;;;;;;;9.14;70.67;101336.16;5053970;28;20410;-45
2024/03/05 02:09:32;;;;;;;34.20;16.05;;;;;;;9.15;71.42;101337.94;5054268;28;20029;-45
2024/03/05 02:11:57;;;;;;;35.60;15.80;;;;;;;9.15;70.98;101328.38;5053091;28;20540;-46
2024/03/05 02:14:26;;;;;;;36.33;17.27;;;;;;;9.15;71.60;101332.72;5053380;28;20043;-45
2024/03/05 02:16:53;;;;;;;38.67;16.38;;;;;;;9.14;71.77;101333.56;5054344;28;20079;-45
2024/03/05 02:19:18;;;;;;;38.85;17.02;;;;;;;9.11;71.67;101329.16;5053609;28;21072;-46
2024/03/05 02:21:44;;;;;;;37.50;16.50;;;;;;;9.16;71.90;101330.13;5052735;28;20040;-46
2024/03/05 02:24:10;;;;;;;34.85;16.40;;;;;;;9.20;71.29;101332.00;5054194;28;20033;-46
2024/03/05 02:26:35;;;;;;;35.95;16.90;;;;;;;9.17;71.46;101333.63;5055685;28;20257;-45
2024/03/05 02:29:02;;;;;;;33.72;16.95;;;;;;;9.17;72.21;101337.09;5056432;28;20029;-47
2024/03/05 02:31:27;;;;;;;36.53;17.05;;;;;;;9.17;71.51;101341.44;5054956;28;20040;-46
2024/03/05 02:33:53;;;;;;;35.90;16.77;;;;;;;9.16;71.71;101343.16;5055671;28;20029;-47
2024/03/05 02:36:20;;;;;;;35.42;16.35;;;;;;;9.26;71.51;101339.09;5054432;28;20049;-47
2024/03/05 02:38:45;;;;;;;34.55;15.98;;;;;;;9.19;71.63;101342.34;5053394;28;20116;-46
2024/03/05 02:41:10;;;;;;;38.38;17.30;;;;;;;9.14;71.67;101339.66;5051922;28;20128;-46
2024/03/05 02:43:36;;;;;;;41.88;17.77;;;;;;;9.16;72.34;101337.94;5052905;28;20021;-45
2024/03/05 02:46:01;;;;;;;38.83;17.73;;;;;;;9.19;71.94;101338.03;5051192;28;20445;-44
2024/03/05 02:48:26;;;;;;;38.58;16.88;;;;;;;9.22;71.74;101332.91;5053366;28;20029;-43
2024/03/05 02:50:52;;;;;;;47.38;18.38;;;;;;;9.17;72.04;101329.31;5053926;28;20679;-45
2024/03/05 02:53:17;;;;;;;39.65;17.70;;;;;;;9.10;71.78;101327.38;5052789;28;20037;-48
2024/03/05 02:55:46;;;;;;;41.55;18.08;;;;;;;9.20;71.39;101333.72;5052196;28;20033;-46
2024/03/05 02:58:11;;;;;;;39.03;17.25;;;;;;;9.14;72.12;101330.97;5051925;28;20033;-48
2024/03/05 03:00:40;;;;;;;37.30;17.20;;;;;;;9.18;72.23;101330.19;5052351;28;20041;-45
2024/03/05 03:03:05;;;;;;;40.83;16.63;;;;;;;9.21;71.74;101332.88;5051964;28;20580;-46
2024/03/05 03:05:31;;;;;;;38.95;17.45;;;;;;;9.19;72.12;101335.44;5052409;28;20033;-47
2024/03/05 03:07:56;;;;;;;37.17;16.85;;;;;;;9.26;72.09;101331.28;5052806;28;20406;-44
2024/03/05 03:10:22;;;;;;;38.78;17.35;;;;;;;9.27;72.27;101322.63;5051807;28;20036;-46
2024/03/05 03:12:48;;;;;;;43.72;17.63;;;;;;;9.29;72.29;101329.63;5051909;28;20533;-48
2024/03/05 03:15:14;;;;;;;39.10;17.50;;;;;;;9.38;72.65;101331.59;5052318;28;20083;-45
2024/03/05 03:17:40;;;;;;;43.78;18.02;;;;;;;9.18;73.22;101338.00;5052455;28;20115;-44
2024/03/05 03:20:07;;;;;;;42.45;17.80;;;;;;;9.45;72.99;101335.22;5054263;28;20037;-46
2024/03/05 03:22:33;;;;;;;42.08;18.67;;;;;;;9.53;73.06;101334.56;5053406;28;20040;-47
2024/03/05 03:24:58;;;;;;;45.58;17.88;;;;;;;9.63;72.76;101335.69;5052111;28;20107;-45
2024/03/05 03:27:24;;;;;;;42.13;18.17;;;;;;;9.64;72.98;101340.91;5052035;28;20029;-44
2024/03/05 03:29:51;;;;;;;46.47;19.05;;;;;;;9.71;73.06;101339.34;5052522;28;20033;-45
2024/03/05 03:32:17;;;;;;;50.65;19.52;;;;;;;9.72;72.98;101341.09;5050538;28;20052;-45
2024/03/05 03:34:43;;;;;;;48.20;19.48;;;;;;;9.75;72.96;101349.88;5052222;28;20044;-45
2024/03/05 03:37:08;;;;;;;51.00;19.65;;;;;;;9.76;72.65;101345.53;5051947;28;20062;-45
2024/03/05 03:39:36;;;;;;;52.72;20.23;;;;;;;9.81;72.82;101343.94;5052580;28;20127;-46
2024/03/05 03:42:02;;;;;;;49.80;19.27;;;;;;;9.85;73.03;101335.34;5051870;28;20058;-45
2024/03/05 03:44:27;;;;;;;47.50;19.27;;;;;;;9.87;72.88;101338.00;5051862;28;20407;-47
2024/03/05 03:46:53;;;;;;;47.45;19.85;;;;;;;9.90;73.24;101332.84;5052227;28;20037;-45
2024/03/05 03:49:21;;;;;;;53.75;21.08;;;;;;;9.94;73.49;101332.94;5034300;28;20039;-46
2024/03/05 03:51:47;;;;;;;56.13;21.65;;;;;;;9.92;73.51;101337.25;5052412;28;20036;-45
2024/03/05 03:54:12;;;;;;;52.15;20.88;;;;;;;9.90;73.26;101331.13;5052085;28;20025;-46
2024/03/05 03:56:38;;;;;;;49.63;20.13;;;;;;;9.98;73.44;101328.69;5052717;28;20037;-50
2024/03/05 03:59:03;;;;;;;50.83;20.27;;;;;;;10.10;73.20;101327.25;5053277;28;20095;-46
2024/03/05 04:01:31;;;;;;;54.67;21.13;;;;;;;10.08;73.00;101328.06;5053369;28;20041;-45
2024/03/05 04:03:58;;;;;;;54.63;20.52;;;;;;;10.04;73.31;101336.66;5055944;28;20029;-49
2024/03/05 04:06:24;;;;;;;51.13;20.88;;;;;;;10.01;73.53;101321.81;5059428;28;20025;-43
2024/03/05 04:08:50;;;;;;;50.58;20.20;;;;;;;9.98;73.20;101321.78;5067125;28;20037;-46
2024/03/05 04:11:15;;;;;;;50.92;20.27;;;;;;;9.96;73.28;101326.06;5064954;28;20523;-44
2024/03/05 04:13:43;;;;;;;49.30;19.98;;;;;;;9.88;73.29;101330.19;5062075;28;20044;-47
2024/03/05 04:16:09;;;;;;;58.08;22.50;;;;;;;9.92;73.40;101339.84;5056001;28;20028;-46
2024/03/05 04:18:34;;;;;;;49.25;20.25;;;;;;;10.00;73.85;101335.69;5055035;28;20032;-45
2024/03/05 04:21:00;;;;;;;55.10;20.67;;;;;;;10.06;73.55;101329.75;5053023;28;20032;-46
2024/03/05 04:23:26;;;;;;;50.75;21.20;;;;;;;10.14;73.25;101336.00;5053112;28;20086;-45
2024/03/05 04:25:57;;;;;;;54.40;20.52;;;;;;;10.18;73.36;101340.50;5053250;28;20052;-44
2024/03/05 04:28:23;;;;;;;53.25;21.20;;;;;;;10.31;73.19;101344.22;5052239;28;20083;-45
2024/03/05 04:30:51;;;;;;;52.70;20.88;;;;;;;10.28;72.84;101341.56;5051487;28;20036;-48
2024/03/05 04:33:20;;;;;;;53.78;20.63;;;;;;;10.26;73.31;101351.06;5050532;28;20048;-44
2024/03/05 04:35:45;;;;;;;53.70;20.48;;;;;;;10.21;73.29;101350.09;5051481;28;20596;-46
2024/03/05 04:38:10;;;;;;;60.20;22.38;;;;;;;10.18;72.94;101350.91;5051182;28;20036;-45
2024/03/05 04:40:37;;;;;;;47.53;20.13;;;;;;;10.33;73.02;101360.78;5051246;28;20395;-46
2024/03/05 04:43:03;;;;;;;48.78;20.48;;;;;;;10.32;72.97;101361.63;5050217;28;20037;-46
2024/03/05 04:45:29;;;;;;;51.00;20.92;;;;;;;10.29;72.69;101354.63;5050563;28;20030;-44
2024/03/05 04:47:55;;;;;;;53.85;21.20;;;;;;;10.26;72.79;101361.50;5050161;28;20039;-48
2024/03/05 04:50:20;;;;;;;54.33;20.35;;;;;;;10.23;72.34;101357.09;5050519;28;20032;-45
2024/03/05 04:52:46;;;;;;;48.33;20.63;;;;;;;10.30;72.59;101355.53;5050435;28;20044;-45
2024/03/05 04:55:12;;;;;;;49.90;20.55;;;;;;;10.30;72.64;101359.00;5050246;28;20033;-47
2024/03/05 04:57:37;;;;;;;56.15;21.65;;;;;;;10.25;72.92;101354.50;5050353;28;20513;-46
2024/03/05 05:00:08;;;;;;;53.15;20.25;;;;;;;10.32;72.84;101356.41;5050012;28;20124;-47
2024/03/05 05:02:37;;;;;;;53.53;20.60;;;;;;;10.26;72.77;101346.72;5050165;28;20043;-46
2024/03/05 05:05:03;;;;;;;52.13;20.77;;;;;;;10.28;72.42;101349.38;5031818;28;20033;-45
2024/03/05 05:07:29;;;;;;;53.72;21.02;;;;;;;10.36;72.21;101346.13;5050224;28;20041;-48
2024/03/05 05:09:54;;;;;;;55.45;21.58;;;;;;;10.35;72.15;101353.88;5050871;28;20033;-45
2024/03/05 05:12:19;;;;;;;53.38;21.00;;;;;;;10.37;72.23;101341.78;5049317;28;20029;-48
2024/03/05 05:14:44;;;;;;;53.97;20.98;;;;;;;10.34;72.48;101349.50;5050028;28;20037;-46
2024/03/05 05:17:12;;;;;;;58.33;21.65;;;;;;;10.41;72.07;101341.00;5049900;28;20028;-44
2024/03/05 05:19:37;;;;;;;54.42;21.88;;;;;;;10.39;72.18;101342.66;5049927;28;20033;-44
2024/03/05 05:22:04;;;;;;;56.22;21.45;;;;;;;10.22;73.03;101344.03;5049143;28;20025;-45
2024/03/05 05:24:30;;;;;;;54.28;21.05;;;;;;;10.20;73.64;101341.38;5049950;28;20036;-45
2024/03/05 05:26:55;;;;;;;54.55;21.33;;;;;;;10.21;73.70;101344.88;5031581;28;20028;-46
2024/03/05 05:29:20;;;;;;;53.50;21.92;;;;;;;10.20;73.60;101341.38;5049209;28;20067;-46
2024/03/05 05:31:46;;;;;;;57.92;22.10;;;;;;;10.15;73.58;101348.19;5049179;28;20478;-45
2024/03/05 05:34:11;;;;;;;57.53;21.35;;;;;;;10.27;73.65;101339.78;5048176;28;20592;-45
2024/03/05 05:36:36;;;;;;;51.20;21.33;;;;;;;10.36;73.43;101343.50;5049946;28;20124;-46
2024/03/05 05:39:02;;;;;;;59.38;21.88;;;;;;;10.28;73.60;101341.56;5049744;28;20160;-46
2024/03/05 05:41:27;;;;;;;53.53;21.88;;;;;;;10.23;73.40;101344.06;5049475;28;20060;-47
2024/03/05 05:43:52;;;;;;;57.25;21.98;;;;;;;10.23;73.61;101340.59;5050669;28;20078;-48
2024/03/05 05:46:22;;;;;;;55.95;21.33;;;;;;;10.26;73.81;101348.47;5050316;28;20060;-47
2024/03/05 05:48:51;;;;;;;62.58;23.15;;;;;;;10.24;74.00;101351.06;5050023;28;20033;-46
2024/03/05 05:51:18;;;;;;;60.40;22.20;;;;;;;10.26;74.23;101351.94;5048789;28;20033;-47
2024/03/05 05:53:44;;;;;;;58.20;22.40;;;;;;;10.26;74.59;101348.47;5050096;28;20182;-45
2024/03/05 05:56:10;;;;;;;62.05;22.27;;;;;;;10.34;74.41;101353.00;5049435;28;20029;-45
2024/03/05 05:58:36;;;;;;;66.43;24.38;;;;;;;10.35;74.22;101354.78;5049479;28;20033;-46
2024/03/05 06:01:05;;;;;;;67.43;23.65;;;;;;;10.30;74.51;101359.00;5049095;28;20090;-46
2024/03/05 06:03:31;;;;;;;65.35;23.85;;;;;;;10.34;74.58;101354.72;5050850;28;20083;-45
2024/03/05 06:05:57;;;;;;;65.80;22.98;;;;;;;10.43;74.58;101362.75;5052122;28;20499;-45
2024/03/05 06:08:22;;;;;;;67.78;23.65;;;;;;;10.48;74.34;101371.56;5051503;28;20029;-44
2024/03/05 06:10:48;;;;;;;61.88;23.30;;;;;;;10.52;74.43;101366.44;5052359;28;20048;-44
2024/03/05 06:13:15;;;;;;;64.70;23.85;;;;;;;10.53;74.43;101367.31;5051451;28;20029;-45
2024/03/05 06:15:40;;;;;;;61.90;22.80;;;;;;;10.51;74.36;101375.09;5033090;28;20033;-45
2024/03/05 06:18:06;;;;;;;58.75;22.50;;;;;;;10.55;73.98;101376.91;5049757;28;20033;-50
2024/03/05 06:20:32;;;;;;;61.30;22.58;;;;;;;10.61;74.28;101375.31;5051056;28;20118;-45
2024/03/05 06:22:58;;;;;;;58.95;22.58;;;;;;;10.64;73.96;101377.97;5051592;28;20136;-46
2024/03/05 06:25:24;;;;;;;59.03;21.40;;;;;;;10.68;74.21;101378.06;5051192;28;20033;-45
2024/03/05 06:27:49;;;;;;;68.22;23.90;;;;;;;10.64;74.16;101368.41;5051305;28;20124;-45
2024/03/05 06:30:17;;;;;;;62.97;24.05;;;;;;;10.66;74.40;101381.50;5051240;28;20033;-45
2024/03/05 06:32:47;;;;;;;63.53;23.25;;;;;;;10.73;73.93;101376.44;5052561;28;20555;-45
2024/03/05 06:35:18;;;;;;;64.63;22.70;;;;;;;10.83;74.03;101374.91;5052618;28;20035;-46
2024/03/05 06:37:46;;;;;;;64.68;23.60;;;;;;;10.80;73.75;101380.03;5052993;28;20029;-45
2024/03/05 06:40:13;;;;;;;65.30;23.63;;;;;;;10.75;74.09;101384.28;5052314;28;20041;-44
2024/03/05 06:42:43;;;;;;;67.38;24.50;;;;;;;10.75;74.33;101386.88;5034475;28;20033;-45
2024/03/05 06:45:09;;;;;;;66.60;24.27;;;;;;;10.78;74.33;101384.34;5052038;28;20036;-45
2024/03/05 06:47:46;;;;;;;69.00;24.08;;;;;;;10.85;74.03;101387.13;5052536;28;20029;-47
2024/03/05 06:50:19;;;;;;;58.90;23.17;;;;;;;10.91;73.79;101376.81;5052125;28;20025;-43
2024/03/05 06:58:14;;;;;;;63.38;23.52;;;;;;;10.83;74.04;101377.50;5052463;28;20078;-43
2024/03/05 07:00:40;;;;;;;64.75;23.98;;;;;;;10.78;73.93;101382.63;5052551;28;20120;-44
2024/03/05 07:03:06;;;;;;;69.05;24.50;;;;;;;10.83;73.94;101380.09;5051894;28;20112;-45
2024/03/05 07:05:32;;;;;;;67.68;24.48;;;;;;;10.51;75.01;101388.13;5052743;28;20170;-46
2024/03/05 07:08:00;;;;;;;68.22;25.15;;;;;;;10.79;74.42;101393.94;5053081;28;20029;-44
2024/03/05 07:10:26;;;;;;;71.00;25.90;;;;;;;10.88;74.23;101397.59;5052152;28;20040;-48
2024/03/05 07:12:51;;;;;;;71.18;26.52;;;;;;;10.99;74.20;101403.91;5052282;28;20033;-46
2024/03/05 07:15:17;;;;;;;80.05;25.70;;;;;;;11.09;74.15;101407.59;5051667;28;20087;-46
2024/03/05 07:17:43;;;;;;;71.47;26.25;;;;;;;10.91;74.79;101400.31;5053005;28;20033;-44
2024/03/05 07:20:18;;;;;;;79.28;27.40;;;;;;;11.06;74.77;101401.44;5053102;28;20124;-43
2024/03/05 07:22:47;;;;;;;77.28;27.38;;;;;;;11.25;73.81;101396.59;5052972;28;20032;-46
2024/03/05 07:25:14;;;;;;;81.53;27.75;;;;;;;11.33;73.69;101405.47;5052472;28;20037;-44
2024/03/05 07:27:43;;;;;;;79.00;27.63;;;;;;;11.23;74.10;101407.84;5052586;28;20490;-44
2024/03/05 07:30:12;;;;;;;84.25;29.17;;;;;;;11.23;74.07;101413.06;5051628;28;20025;-46
2024/03/05 07:32:37;;;;;;;73.20;29.20;;;;;;;11.39;73.29;101402.97;5051810;28;20033;-45
2024/03/05 07:35:03;;;;;;;74.03;27.65;;;;;;;11.02;74.58;101407.44;5051560;28;20021;-45
2024/03/05 07:37:28;;;;;;;74.93;28.20;;;;;;;11.19;74.21;101404.31;5051589;28;20036;-46
2024/03/05 07:39:54;;;;;;;75.97;27.70;;;;;;;11.35;73.45;101406.34;5051547;28;20095;-47
2024/03/05 07:42:20;;;;;;;73.90;27.13;;;;;;;11.35;73.81;101408.09;5050268;28;20029;-44
2024/03/05 07:44:45;;;;;;;76.28;27.77;;;;;;;11.25;73.93;101406.16;5051647;28;20167;-47
2024/03/05 07:47:10;;;;;;;75.68;28.05;;;;;;;11.30;73.25;101407.13;5050797;28;20025;-47
2024/03/05 07:49:38;;;;;;;69.97;26.40;;;;;;;11.31;73.83;101399.31;5051527;28;20055;-44
2024/03/05 07:52:03;;;;;;;79.90;27.88;;;;;;;11.47;73.01;101397.88;5050280;28;20061;-45
2024/03/05 07:54:29;;;;;;;69.57;26.10;;;;;;;11.38;73.13;101402.94;5050935;28;20064;-46
2024/03/05 07:56:54;;;;;;;80.70;27.90;;;;;;;11.26;73.94;101393.16;5051369;28;20448;-46
2024/03/05 07:59:20;;;;;;;75.95;28.02;;;;;;;11.33;73.36;101396.75;5051314;28;20398;-45
2024/03/05 08:01:45;;;;;;;73.05;27.60;;;;;;;11.30;73.07;101397.56;5051531;28;20519;-46
2024/03/05 08:04:10;;;;;;;74.00;27.83;;;;;;;11.65;72.55;101407.75;5052218;28;20035;-48
2024/03/05 08:06:36;;;;;;;74.53;27.83;;;;;;;11.39;72.80;101423.84;5052848;28;20499;-45
2024/03/05 08:09:03;;;;;;;74.47;27.77;;;;;;;11.47;73.04;101418.75;5053296;28;20035;-45
2024/03/05 08:11:28;;;;;;;69.60;26.95;;;;;;;11.38;73.43;101411.66;5057065;28;20045;-44
2024/03/05 08:13:54;;;;;;;79.25;28.65;;;;;;;11.60;73.04;101422.47;5056330;28;20155;-44
2024/03/05 08:16:19;;;;;;;75.25;27.67;;;;;;;11.57;72.57;101428.53;5055061;28;20037;-44
2024/03/05 08:18:46;;;;;;;76.20;28.50;;;;;;;11.56;73.15;101437.22;5052790;28;20551;-46
2024/03/05 08:21:11;;;;;;;69.47;26.98;;;;;;;11.51;74.04;101441.47;5050373;28;20052;-48
2024/03/05 08:23:36;;;;;;;73.50;27.77;;;;;;;11.71;73.13;101437.47;5051434;28;20029;-46
2024/03/05 08:26:05;;;;;;;77.72;28.58;;;;;;;11.61;73.72;101432.94;5050498;28;20029;-46
2024/03/05 08:28:30;;;;;;;73.25;27.85;;;;;;;11.19;74.37;101430.41;5051017;28;20033;-46
2024/03/05 08:30:55;;;;;;;71.20;27.92;;;;;;;11.50;73.87;101431.00;5050595;28;20387;-46
2024/03/05 08:33:23;;;;;;;76.78;28.13;;;;;;;11.55;73.33;101431.94;5049417;28;20032;-47
2024/03/05 08:35:48;;;;;;;73.38;28.52;;;;;;;11.33;73.36;101426.34;5050513;28;20518;-44
2024/03/05 08:38:13;;;;;;;72.95;28.77;;;;;;;11.45;73.50;101427.44;5050261;28;20033;-46
2024/03/05 08:40:39;;;;;;;72.80;26.85;;;;;;;11.72;73.16;101435.75;5050358;28;20039;-46
2024/03/05 08:43:06;;;;;;;73.60;28.23;;;;;;;11.76;72.60;101443.72;5049531;28;20116;-47
2024/03/05 08:45:32;;;;;;;73.72;28.15;;;;;;;11.68;73.75;101436.56;5050556;28;20029;-45
2024/03/05 08:47:58;;;;;;;73.30;27.88;;;;;;;11.84;73.31;101441.22;5050719;28;20051;-46
2024/03/05 08:50:27;;;;;;;76.00;29.10;;;;;;;11.87;73.09;101446.50;5049919;28;20036;-45
2024/03/05 08:52:52;;;;;;;71.32;28.35;;;;;;;11.92;73.22;101451.81;5050065;28;20082;-47
2024/03/05 08:55:18;;;;;;;76.13;30.30;;;;;;;11.85;73.45;101457.78;5048830;28;20033;-47
2024/03/05 08:57:43;;;;;;;67.88;28.40;;;;;;;11.89;73.15;101452.66;5050255;28;20495;-46
2024/03/05 09:00:17;;;;;;;69.95;29.23;;;;;;;11.90;73.33;101457.00;5050713;28;20047;-48
2024/03/05 09:02:46;;;;;;;74.10;30.97;;;;;;;11.93;73.20;101453.56;5052436;28;20036;-46
2024/03/05 09:05:11;;;;;;;72.07;29.48;;;;;;;11.96;73.13;101456.22;5050446;28;20025;-44
2024/03/05 09:07:38;;;;;;;75.60;30.08;;;;;;;12.12;73.11;101453.03;5032761;28;20040;-46
2024/03/05 09:10:05;;;;;;;71.90;29.38;;;;;;;12.10;72.88;101453.00;5049892;28;20025;-45
2024/03/05 09:12:31;;;;;;;73.68;29.75;;;;;;;12.15;72.58;101453.94;5049546;28;20036;-46
2024/03/05 09:14:56;;;;;;;78.63;30.08;;;;;;;12.19;72.30;101457.50;5050660;28;20033;-45
2024/03/05 09:17:22;;;;;;;72.65;30.25;;;;;;;12.14;72.42;101460.03;5049484;28;20037;-48
2024/03/05 09:19:48;;;;;;;72.32;30.63;;;;;;;12.05;72.64;101467.72;5051439;28;20498;-46
2024/03/05 09:22:15;;;;;;;73.47;30.83;;;;;;;12.20;72.20;101465.34;5049489;28;20029;-45
2024/03/05 09:24:48;;;;;;;70.38;30.30;;;;;;;12.33;72.20;101453.34;5050463;28;20029;-46
2024/03/05 09:27:13;;;;;;;71.32;29.77;;;;;;;12.35;72.19;101458.59;5050689;28;20055;-44
2024/03/05 09:29:41;;;;;;;72.15;30.00;;;;;;;12.37;72.45;101456.91;5052096;28;20033;-46
2024/03/05 09:32:08;;;;;;;67.50;30.42;;;;;;;12.50;72.24;101462.31;5051047;28;20037;-45
2024/03/05 09:34:33;;;;;;;76.90;32.08;;;;;;;12.30;72.08;101462.88;5051786;28;20479;-45
2024/03/05 09:36:58;;;;;;;73.00;30.85;;;;;;;12.52;71.80;101463.22;5051198;28;20033;-44
2024/03/05 09:39:24;;;;;;;69.90;30.98;;;;;;;12.67;71.53;101461.72;5049637;28;20036;-48
2024/03/05 09:41:49;;;;;;;68.32;29.70;;;;;;;12.88;70.76;101457.63;5049890;28;20061;-46
2024/03/05 09:44:15;;;;;;;67.65;28.85;;;;;;;12.94;70.77;101462.94;5052571;28;20036;-44
2024/03/05 09:46:45;;;;;;;65.93;29.45;;;;;;;12.66;70.48;101473.91;5052907;28;20049;-44
2024/03/05 09:49:13;;;;;;;69.10;29.73;;;;;;;12.69;70.80;101466.09;5052422;28;20521;-44
2024/03/05 09:51:39;;;;;;;70.03;29.38;;;;;;;12.73;70.55;101472.25;5051280;28;20033;-48
2024/03/05 09:54:07;;;;;;;68.43;30.17;;;;;;;13.02;69.78;101479.63;5050160;28;20089;-44
2024/03/05 09:56:34;;;;;;;67.28;29.88;;;;;;;12.94;69.85;101477.75;5050142;28;20527;-47
2024/03/05 09:59:04;;;;;;;69.07;31.35;;;;;;;13.12;69.64;101472.81;5051813;28;20375;-45
2024/03/05 10:01:31;;;;;;;66.72;29.95;;;;;;;12.95;69.10;101471.69;5051241;28;20041;-44
2024/03/05 10:03:59;;;;;;;66.22;28.95;;;;;;;13.19;68.16;101477.25;5050995;28;20048;-46
2024/03/05 10:06:26;;;;;;;66.15;29.77;;;;;;;13.18;67.64;101472.88;5051517;28;20029;-49
2024/03/05 10:08:51;;;;;;;62.22;29.20;;;;;;;13.18;68.05;101480.72;5054085;28;20059;-48
2024/03/05 10:11:17;;;;;;;62.85;29.35;;;;;;;13.21;67.56;101493.00;5054929;28;20032;-45
2024/03/05 10:13:42;;;;;;;62.72;29.95;;;;;;;13.09;68.01;101492.81;5055784;28;20070;-45
2024/03/05 10:16:17;;;;;;;62.60;29.40;;;;;;;13.16;67.77;101492.94;5055568;28;20037;-45
2024/03/05 10:18:44;;;;;;;61.17;30.48;;;;;;;13.11;68.14;101496.34;5053882;28;20553;-48
2024/03/05 10:21:18;;;;;;;66.60;31.05;;;;;;;12.99;68.40;101489.19;5052123;28;20060;-46
2024/03/05 10:23:49;;;;;;;;;;;;;;;13.14;68.99;101485.91;5053394;28;20037;-44
2024/03/05 10:26:19;;;;;;;60.25;29.35;;;;;;;13.33;68.13;101482.66;5052399;28;20012;-45
2024/03/05 10:28:45;;;;;;;63.33;30.70;;;;;;;13.48;67.71;101480.22;5054240;28;20534;-46
2024/03/05 10:31:11;;;;;;;62.72;30.65;;;;;;;13.46;68.08;101481.94;5053618;28;20123;-46
2024/03/05 10:33:36;;;;;;;63.03;30.90;;;;;;;13.57;68.37;101493.41;5052676;28;20029;-47
2024/03/05 10:36:01;;;;;;;65.25;31.30;;;;;;;13.51;68.04;101493.34;5052415;28;20032;-44
2024/03/05 10:38:27;;;;;;;60.35;31.08;;;;;;;13.58;67.29;101492.56;5053010;28;20106;-50
2024/03/05 10:40:55;;;;;;;61.13;30.95;;;;;;;13.70;66.98;101494.44;5052234;28;20041;-47
2024/03/05 10:43:21;;;;;;;60.25;30.20;;;;;;;13.84;66.68;101500.72;5051647;28;20029;-44
2024/03/05 10:45:47;;;;;;;57.90;29.98;;;;;;;13.96;65.97;101505.19;5034642;28;20112;-45
2024/03/05 10:48:14;;;;;;;60.58;30.02;;;;;;;13.66;65.61;101500.53;5052223;28;20025;-44
2024/03/05 10:50:43;;;;;;;59.50;29.08;;;;;;;13.79;66.18;101515.47;5052130;28;20449;-42
2024/03/05 10:53:10;;;;;;;60.13;29.80;;;;;;;14.11;65.20;101503.56;5051776;28;20036;-45
2024/03/05 10:55:36;;;;;;;57.28;29.75;;;;;;;14.05;64.80;101495.66;5052466;28;20038;-46
2024/03/05 11:00:40;;;;;;;53.38;28.13;;;;;;;13.98;64.39;101506.06;5051771;28;20075;-46
2024/03/05 11:03:10;;;;;;;58.33;29.15;;;;;;;13.89;64.80;101512.13;5051334;28;20060;-47
2024/03/05 11:05:50;;;;;;;57.13;29.17;;;;;;;13.61;64.99;101518.78;5052181;28;20060;-48
2024/03/05 11:08:21;;;;;;;55.05;29.60;;;;;;;13.81;63.60;101517.28;5051912;28;20053;-46
2024/03/05 11:10:51;;;;;;;54.72;28.65;;;;;;;14.14;64.28;101519.34;5051984;28;20036;-46
2024/03/05 11:13:18;;;;;;;57.10;27.65;;;;;;;14.33;63.89;101516.88;5051831;28;20040;-46
2024/03/05 11:15:44;;;;;;;54.83;27.38;;;;;;;14.14;62.37;101514.09;5052843;28;20037;-45